sensor_id;sensor_type;location;lat;lon;timestamp;P1;durP1;ratioP1;P2;durP2;ratioP2
41229;SDS011;26964;50.428;19.218;2023-10-08T00:00:13;0.4;;;0.3;;
41229;SDS011;26964;50.428;19.218;2023-10-08T00:01:13;1.3;;;0.3;;
41229;SDS011;26964;50.428;19.218;2023-10-08T00:02:13;0.7;;;0.4;;
41229;SDS011;26964;50.428;19.218;2023-10-08T00:03:13;0.7;;;0.4;;
41229;SDS011;26964;50.428;19.218;2023-10-08T00:04:13;0.4;;;0.4;;
41229;SDS011;26964;50.428;19.218;2023-10-08T00:05:13;0.4;;;0.4;;
41229;SDS011;26964;50.428;19.218;2023-10-08T00:06:13;0.9;;;0.4;;
41229;SDS011;26964;50.428;19.218;2023-10-08T00:07:13;2.1;;;0.6;;
41229;SDS011;26964;50.428;19.218;2023-10-08T00:08:13;1.6;;;0.9;;
41229;SDS011;26964;50.428;19.218;2023-10-08T00:09:13;0.8;;;0.6;;
41229;SDS011;26964;50.428;19.218;2023-10-08T00:10:13;1.4;;;0.8;;
41229;SDS011;26964;50.428;19.218;2023-10-08T00:11:13;1.2;;;0.8;;
41229;SDS011;26964;50.428;19.218;2023-10-08T00:12:13;0.9;;;0.7;;
41229;SDS011;26964;50.428;19.218;2023-10-08T00:13:13;1.8;;;0.9;;
41229;SDS011;26964;50.428;19.218;2023-10-08T00:14:13;1.1;;;0.8;;
41229;SDS011;26964;50.428;19.218;2023-10-08T00:15:13;2.7;;;1.0;;
41229;SDS011;26964;50.428;19.218;2023-10-08T00:16:13;1.5;;;0.9;;
41229;SDS011;26964;50.428;19.218;2023-10-08T00:17:13;1.5;;;1.1;;
41229;SDS011;26964;50.428;19.218;2023-10-08T00:18:13;2.3;;;1.1;;
41229;SDS011;26964;50.428;19.218;2023-10-08T00:19:13;1.5;;;0.9;;
41229;SDS011;26964;50.428;19.218;2023-10-08T00:20:13;2.0;;;1.3;;
41229;SDS011;26964;50.428;19.218;2023-10-08T00:21:13;2.0;;;1.1;;
41229;SDS011;26964;50.428;19.218;2023-10-08T00:22:13;2.6;;;1.4;;
41229;SDS011;26964;50.428;19.218;2023-10-08T00:23:13;2.5;;;1.3;;
41229;SDS011;26964;50.428;19.218;2023-10-08T00:24:13;2.1;;;1.2;;
41229;SDS011;26964;50.428;19.218;2023-10-08T00:25:13;1.9;;;1.2;;
41229;SDS011;26964;50.428;19.218;2023-10-08T00:26:13;1.9;;;1.4;;
41229;SDS011;26964;50.428;19.218;2023-10-08T00:27:13;1.3;;;1.1;;
41229;SDS011;26964;50.428;19.218;2023-10-08T00:28:13;1.4;;;1.0;;
41229;SDS011;26964;50.428;19.218;2023-10-08T00:29:13;1.6;;;1.2;;
41229;SDS011;26964;50.428;19.218;2023-10-08T00:30:13;2.2;;;1.4;;
41229;SDS011;26964;50.428;19.218;2023-10-08T00:31:13;2.4;;;1.3;;
41229;SDS011;26964;50.428;19.218;2023-10-08T00:32:13;2.3;;;1.4;;
41229;SDS011;26964;50.428;19.218;2023-10-08T00:33:13;1.8;;;1.2;;
41229;SDS011;26964;50.428;19.218;2023-10-08T00:34:13;2.4;;;0.8;;
41229;SDS011;26964;50.428;19.218;2023-10-08T00:35:13;1.9;;;1.0;;
41229;SDS011;26964;50.428;19.218;2023-10-08T00:36:13;1.1;;;0.8;;
41229;SDS011;26964;50.428;19.218;2023-10-08T00:37:13;1.1;;;0.7;;
41229;SDS011;26964;50.428;19.218;2023-10-08T00:38:13;1.5;;;0.9;;
41229;SDS011;26964;50.428;19.218;2023-10-08T00:39:13;1.9;;;0.8;;
41229;SDS011;26964;50.428;19.218;2023-10-08T00:40:13;5.3;;;0.8;;
41229;SDS011;26964;50.428;19.218;2023-10-08T00:41:13;1.7;;;0.4;;
41229;SDS011;26964;50.428;19.218;2023-10-08T00:42:13;0.8;;;0.5;;
41229;SDS011;26964;50.428;19.218;2023-10-08T00:44:13;0.9;;;0.5;;
41229;SDS011;26964;50.428;19.218;2023-10-08T00:45:13;1.4;;;0.6;;
41229;SDS011;26964;50.428;19.218;2023-10-08T00:46:13;0.7;;;0.4;;
41229;SDS011;26964;50.428;19.218;2023-10-08T00:47:13;0.9;;;0.4;;
41229;SDS011;26964;50.428;19.218;2023-10-08T00:48:13;0.9;;;0.5;;
41229;SDS011;26964;50.428;19.218;2023-10-08T00:49:13;0.5;;;0.4;;
41229;SDS011;26964;50.428;19.218;2023-10-08T00:50:13;1.4;;;1.2;;
41229;SDS011;26964;50.428;19.218;2023-10-08T00:51:13;0.5;;;0.4;;
41229;SDS011;26964;50.428;19.218;2023-10-08T00:52:13;0.7;;;0.4;;
41229;SDS011;26964;50.428;19.218;2023-10-08T00:53:13;0.8;;;0.5;;
41229;SDS011;26964;50.428;19.218;2023-10-08T00:54:13;1.9;;;0.4;;
41229;SDS011;26964;50.428;19.218;2023-10-08T00:55:13;0.7;;;0.5;;
41229;SDS011;26964;50.428;19.218;2023-10-08T00:56:13;0.7;;;0.4;;
41229;SDS011;26964;50.428;19.218;2023-10-08T00:57:13;1.3;;;0.5;;
41229;SDS011;26964;50.428;19.218;2023-10-08T00:58:13;0.9;;;0.6;;
41229;SDS011;26964;50.428;19.218;2023-10-08T00:59:13;0.7;;;0.5;;
41229;SDS011;26964;50.428;19.218;2023-10-08T01:00:13;1.9;;;0.7;;
41229;SDS011;26964;50.428;19.218;2023-10-08T01:01:13;2.2;;;0.6;;
41229;SDS011;26964;50.428;19.218;2023-10-08T01:02:12;2.9;;;1.1;;
41229;SDS011;26964;50.428;19.218;2023-10-08T01:03:13;1.0;;;0.5;;
41229;SDS011;26964;50.428;19.218;2023-10-08T01:05:13;1.2;;;0.6;;
41229;SDS011;26964;50.428;19.218;2023-10-08T01:06:13;1.7;;;0.5;;
41229;SDS011;26964;50.428;19.218;2023-10-08T01:07:13;1.5;;;0.8;;
41229;SDS011;26964;50.428;19.218;2023-10-08T01:08:13;1.5;;;0.6;;
41229;SDS011;26964;50.428;19.218;2023-10-08T01:09:13;1.1;;;0.5;;
41229;SDS011;26964;50.428;19.218;2023-10-08T01:10:13;0.6;;;0.5;;
41229;SDS011;26964;50.428;19.218;2023-10-08T01:12:13;1.1;;;0.5;;
41229;SDS011;26964;50.428;19.218;2023-10-08T01:13:13;1.7;;;0.4;;
41229;SDS011;26964;50.428;19.218;2023-10-08T01:14:13;0.9;;;0.4;;
41229;SDS011;26964;50.428;19.218;2023-10-08T01:15:13;1.3;;;0.6;;
41229;SDS011;26964;50.428;19.218;2023-10-08T01:16:12;1.0;;;0.6;;
41229;SDS011;26964;50.428;19.218;2023-10-08T01:17:13;1.0;;;0.5;;
41229;SDS011;26964;50.428;19.218;2023-10-08T01:18:13;2.9;;;0.8;;
41229;SDS011;26964;50.428;19.218;2023-10-08T01:20:13;1.7;;;0.6;;
41229;SDS011;26964;50.428;19.218;2023-10-08T01:21:13;2.7;;;0.6;;
41229;SDS011;26964;50.428;19.218;2023-10-08T01:22:12;1.1;;;0.6;;
41229;SDS011;26964;50.428;19.218;2023-10-08T01:23:12;1.2;;;0.7;;
41229;SDS011;26964;50.428;19.218;2023-10-08T01:24:12;1.4;;;0.5;;
41229;SDS011;26964;50.428;19.218;2023-10-08T01:25:13;1.7;;;0.6;;
41229;SDS011;26964;50.428;19.218;2023-10-08T01:26:12;1.0;;;0.6;;
41229;SDS011;26964;50.428;19.218;2023-10-08T01:27:13;2.2;;;0.7;;
41229;SDS011;26964;50.428;19.218;2023-10-08T01:28:12;1.1;;;0.7;;
41229;SDS011;26964;50.428;19.218;2023-10-08T01:29:12;2.7;;;0.9;;
41229;SDS011;26964;50.428;19.218;2023-10-08T01:30:13;1.7;;;0.9;;
41229;SDS011;26964;50.428;19.218;2023-10-08T01:31:13;1.4;;;0.8;;
41229;SDS011;26964;50.428;19.218;2023-10-08T01:32:12;1.7;;;1.0;;
41229;SDS011;26964;50.428;19.218;2023-10-08T01:33:13;4.4;;;1.2;;
41229;SDS011;26964;50.428;19.218;2023-10-08T01:34:12;2.3;;;1.1;;
41229;SDS011;26964;50.428;19.218;2023-10-08T01:35:13;3.0;;;1.2;;
41229;SDS011;26964;50.428;19.218;2023-10-08T01:36:13;3.3;;;1.0;;
41229;SDS011;26964;50.428;19.218;2023-10-08T01:37:13;3.1;;;1.1;;
41229;SDS011;26964;50.428;19.218;2023-10-08T01:38:13;2.4;;;1.1;;
41229;SDS011;26964;50.428;19.218;2023-10-08T01:39:12;3.3;;;1.2;;
41229;SDS011;26964;50.428;19.218;2023-10-08T01:40:12;3.4;;;1.0;;
41229;SDS011;26964;50.428;19.218;2023-10-08T01:41:13;3.6;;;1.2;;
41229;SDS011;26964;50.428;19.218;2023-10-08T01:42:12;2.8;;;1.6;;
41229;SDS011;26964;50.428;19.218;2023-10-08T01:43:12;3.0;;;1.1;;
41229;SDS011;26964;50.428;19.218;2023-10-08T01:44:12;2.2;;;1.1;;
41229;SDS011;26964;50.428;19.218;2023-10-08T01:45:13;2.5;;;1.3;;
41229;SDS011;26964;50.428;19.218;2023-10-08T01:46:13;2.2;;;1.3;;
41229;SDS011;26964;50.428;19.218;2023-10-08T01:47:12;2.1;;;1.1;;
41229;SDS011;26964;50.428;19.218;2023-10-08T01:48:12;3.5;;;1.3;;
41229;SDS011;26964;50.428;19.218;2023-10-08T01:49:13;3.3;;;1.4;;
41229;SDS011;26964;50.428;19.218;2023-10-08T01:50:12;2.7;;;1.5;;
41229;SDS011;26964;50.428;19.218;2023-10-08T01:51:12;2.5;;;1.2;;
41229;SDS011;26964;50.428;19.218;2023-10-08T01:52:12;4.0;;;1.6;;
41229;SDS011;26964;50.428;19.218;2023-10-08T01:53:13;1.9;;;1.3;;
41229;SDS011;26964;50.428;19.218;2023-10-08T01:54:13;1.8;;;0.9;;
41229;SDS011;26964;50.428;19.218;2023-10-08T01:55:12;2.6;;;1.4;;
41229;SDS011;26964;50.428;19.218;2023-10-08T01:56:13;3.5;;;1.5;;
41229;SDS011;26964;50.428;19.218;2023-10-08T01:57:12;2.8;;;1.2;;
41229;SDS011;26964;50.428;19.218;2023-10-08T01:58:13;3.0;;;1.5;;
41229;SDS011;26964;50.428;19.218;2023-10-08T01:59:14;2.1;;;1.4;;
41229;SDS011;26964;50.428;19.218;2023-10-08T02:00:13;2.3;;;1.4;;
41229;SDS011;26964;50.428;19.218;2023-10-08T02:01:12;2.1;;;1.1;;
41229;SDS011;26964;50.428;19.218;2023-10-08T02:02:12;2.8;;;1.5;;
41229;SDS011;26964;50.428;19.218;2023-10-08T02:03:13;3.8;;;1.9;;
41229;SDS011;26964;50.428;19.218;2023-10-08T02:04:12;2.5;;;1.2;;
41229;SDS011;26964;50.428;19.218;2023-10-08T02:05:13;3.5;;;1.7;;
41229;SDS011;26964;50.428;19.218;2023-10-08T02:06:12;2.6;;;1.4;;
41229;SDS011;26964;50.428;19.218;2023-10-08T02:07:12;2.5;;;1.3;;
41229;SDS011;26964;50.428;19.218;2023-10-08T02:08:13;2.1;;;1.1;;
41229;SDS011;26964;50.428;19.218;2023-10-08T02:09:12;2.4;;;1.2;;
41229;SDS011;26964;50.428;19.218;2023-10-08T02:10:12;2.4;;;1.3;;
41229;SDS011;26964;50.428;19.218;2023-10-08T02:11:12;2.7;;;1.3;;
41229;SDS011;26964;50.428;19.218;2023-10-08T02:12:12;2.7;;;1.2;;
41229;SDS011;26964;50.428;19.218;2023-10-08T02:13:13;3.0;;;1.3;;
41229;SDS011;26964;50.428;19.218;2023-10-08T02:14:12;3.1;;;1.5;;
41229;SDS011;26964;50.428;19.218;2023-10-08T02:15:12;3.3;;;1.2;;
41229;SDS011;26964;50.428;19.218;2023-10-08T02:17:12;1.8;;;1.0;;
41229;SDS011;26964;50.428;19.218;2023-10-08T02:18:12;2.8;;;1.2;;
41229;SDS011;26964;50.428;19.218;2023-10-08T02:19:12;2.9;;;1.2;;
41229;SDS011;26964;50.428;19.218;2023-10-08T02:20:12;3.4;;;1.3;;
41229;SDS011;26964;50.428;19.218;2023-10-08T02:21:13;2.3;;;1.0;;
41229;SDS011;26964;50.428;19.218;2023-10-08T02:22:13;2.6;;;1.2;;
41229;SDS011;26964;50.428;19.218;2023-10-08T02:23:12;1.6;;;0.9;;
41229;SDS011;26964;50.428;19.218;2023-10-08T02:24:12;3.0;;;1.6;;
41229;SDS011;26964;50.428;19.218;2023-10-08T02:25:12;2.2;;;0.9;;
41229;SDS011;26964;50.428;19.218;2023-10-08T02:26:12;5.4;;;1.6;;
41229;SDS011;26964;50.428;19.218;2023-10-08T02:27:12;2.6;;;1.0;;
41229;SDS011;26964;50.428;19.218;2023-10-08T02:28:12;1.9;;;1.0;;
41229;SDS011;26964;50.428;19.218;2023-10-08T02:29:12;3.0;;;0.9;;
41229;SDS011;26964;50.428;19.218;2023-10-08T02:30:13;1.3;;;0.7;;
41229;SDS011;26964;50.428;19.218;2023-10-08T02:31:12;1.7;;;0.8;;
41229;SDS011;26964;50.428;19.218;2023-10-08T02:32:12;1.8;;;0.9;;
41229;SDS011;26964;50.428;19.218;2023-10-08T02:33:13;2.6;;;1.3;;
41229;SDS011;26964;50.428;19.218;2023-10-08T02:34:13;2.4;;;1.1;;
41229;SDS011;26964;50.428;19.218;2023-10-08T02:35:13;3.4;;;1.1;;
41229;SDS011;26964;50.428;19.218;2023-10-08T02:36:13;2.0;;;0.9;;
41229;SDS011;26964;50.428;19.218;2023-10-08T02:37:12;2.1;;;0.8;;
41229;SDS011;26964;50.428;19.218;2023-10-08T02:38:13;2.4;;;1.0;;
41229;SDS011;26964;50.428;19.218;2023-10-08T02:39:13;1.9;;;1.0;;
41229;SDS011;26964;50.428;19.218;2023-10-08T02:40:12;2.9;;;1.0;;
41229;SDS011;26964;50.428;19.218;2023-10-08T02:42:13;2.0;;;0.7;;
41229;SDS011;26964;50.428;19.218;2023-10-08T02:43:13;2.4;;;1.0;;
41229;SDS011;26964;50.428;19.218;2023-10-08T02:44:13;1.9;;;1.0;;
41229;SDS011;26964;50.428;19.218;2023-10-08T02:45:12;2.2;;;1.0;;
41229;SDS011;26964;50.428;19.218;2023-10-08T02:46:12;1.7;;;0.7;;
41229;SDS011;26964;50.428;19.218;2023-10-08T02:47:12;3.2;;;1.1;;
41229;SDS011;26964;50.428;19.218;2023-10-08T02:48:13;4.0;;;1.1;;
41229;SDS011;26964;50.428;19.218;2023-10-08T02:49:13;3.1;;;1.1;;
41229;SDS011;26964;50.428;19.218;2023-10-08T02:50:12;2.3;;;0.8;;
41229;SDS011;26964;50.428;19.218;2023-10-08T02:51:12;1.9;;;1.0;;
41229;SDS011;26964;50.428;19.218;2023-10-08T02:52:12;3.3;;;1.1;;
41229;SDS011;26964;50.428;19.218;2023-10-08T02:53:12;3.1;;;1.0;;
41229;SDS011;26964;50.428;19.218;2023-10-08T02:54:12;1.8;;;0.8;;
41229;SDS011;26964;50.428;19.218;2023-10-08T02:55:13;3.6;;;0.8;;
41229;SDS011;26964;50.428;19.218;2023-10-08T02:56:12;2.9;;;1.1;;
41229;SDS011;26964;50.428;19.218;2023-10-08T02:57:12;3.2;;;1.0;;
41229;SDS011;26964;50.428;19.218;2023-10-08T02:58:13;2.5;;;0.8;;
41229;SDS011;26964;50.428;19.218;2023-10-08T02:59:12;6.3;;;1.0;;
41229;SDS011;26964;50.428;19.218;2023-10-08T03:00:13;6.8;;;1.2;;
41229;SDS011;26964;50.428;19.218;2023-10-08T03:01:12;2.3;;;1.0;;
41229;SDS011;26964;50.428;19.218;2023-10-08T03:02:13;4.1;;;1.5;;
41229;SDS011;26964;50.428;19.218;2023-10-08T03:03:12;1.7;;;0.8;;
41229;SDS011;26964;50.428;19.218;2023-10-08T03:04:12;2.4;;;1.0;;
41229;SDS011;26964;50.428;19.218;2023-10-08T03:05:12;3.3;;;0.9;;
41229;SDS011;26964;50.428;19.218;2023-10-08T03:06:13;1.6;;;1.0;;
41229;SDS011;26964;50.428;19.218;2023-10-08T03:07:13;2.6;;;0.8;;
41229;SDS011;26964;50.428;19.218;2023-10-08T03:08:13;2.8;;;1.0;;
41229;SDS011;26964;50.428;19.218;2023-10-08T03:09:12;2.5;;;0.9;;
41229;SDS011;26964;50.428;19.218;2023-10-08T03:10:12;2.4;;;0.7;;
41229;SDS011;26964;50.428;19.218;2023-10-08T03:11:12;1.5;;;0.6;;
41229;SDS011;26964;50.428;19.218;2023-10-08T03:12:12;5.0;;;1.1;;
41229;SDS011;26964;50.428;19.218;2023-10-08T03:13:12;2.5;;;1.1;;
41229;SDS011;26964;50.428;19.218;2023-10-08T03:14:12;2.2;;;0.9;;
41229;SDS011;26964;50.428;19.218;2023-10-08T03:15:13;1.9;;;0.9;;
41229;SDS011;26964;50.428;19.218;2023-10-08T03:16:12;3.0;;;0.9;;
41229;SDS011;26964;50.428;19.218;2023-10-08T03:17:12;2.9;;;0.9;;
41229;SDS011;26964;50.428;19.218;2023-10-08T03:18:12;2.8;;;1.0;;
41229;SDS011;26964;50.428;19.218;2023-10-08T03:19:12;4.0;;;1.3;;
41229;SDS011;26964;50.428;19.218;2023-10-08T03:20:12;5.3;;;1.2;;
41229;SDS011;26964;50.428;19.218;2023-10-08T03:21:12;1.8;;;0.9;;
41229;SDS011;26964;50.428;19.218;2023-10-08T03:22:12;3.7;;;1.1;;
41229;SDS011;26964;50.428;19.218;2023-10-08T03:23:13;2.3;;;0.9;;
41229;SDS011;26964;50.428;19.218;2023-10-08T03:24:13;2.1;;;0.9;;
41229;SDS011;26964;50.428;19.218;2023-10-08T03:25:12;2.9;;;0.8;;
41229;SDS011;26964;50.428;19.218;2023-10-08T03:26:12;3.8;;;1.1;;
41229;SDS011;26964;50.428;19.218;2023-10-08T03:27:12;3.6;;;0.9;;
41229;SDS011;26964;50.428;19.218;2023-10-08T03:28:12;2.6;;;0.9;;
41229;SDS011;26964;50.428;19.218;2023-10-08T03:29:12;4.3;;;1.6;;
41229;SDS011;26964;50.428;19.218;2023-10-08T03:30:12;3.8;;;1.1;;
41229;SDS011;26964;50.428;19.218;2023-10-08T03:31:12;4.1;;;1.6;;
41229;SDS011;26964;50.428;19.218;2023-10-08T03:32:13;2.3;;;1.0;;
41229;SDS011;26964;50.428;19.218;2023-10-08T03:33:12;4.8;;;1.3;;
41229;SDS011;26964;50.428;19.218;2023-10-08T03:34:12;3.2;;;1.3;;
41229;SDS011;26964;50.428;19.218;2023-10-08T03:35:12;5.8;;;1.3;;
41229;SDS011;26964;50.428;19.218;2023-10-08T03:36:12;5.0;;;1.5;;
41229;SDS011;26964;50.428;19.218;2023-10-08T03:37:13;3.8;;;1.2;;
41229;SDS011;26964;50.428;19.218;2023-10-08T03:38:12;4.5;;;1.4;;
41229;SDS011;26964;50.428;19.218;2023-10-08T03:39:13;6.6;;;1.7;;
41229;SDS011;26964;50.428;19.218;2023-10-08T03:40:12;3.0;;;1.2;;
41229;SDS011;26964;50.428;19.218;2023-10-08T03:41:12;4.0;;;1.6;;
41229;SDS011;26964;50.428;19.218;2023-10-08T03:42:12;4.2;;;1.2;;
41229;SDS011;26964;50.428;19.218;2023-10-08T03:43:12;3.2;;;1.4;;
41229;SDS011;26964;50.428;19.218;2023-10-08T03:44:12;3.2;;;1.2;;
41229;SDS011;26964;50.428;19.218;2023-10-08T03:45:12;4.6;;;1.2;;
41229;SDS011;26964;50.428;19.218;2023-10-08T03:46:12;2.4;;;1.2;;
41229;SDS011;26964;50.428;19.218;2023-10-08T03:47:13;3.8;;;1.4;;
41229;SDS011;26964;50.428;19.218;2023-10-08T03:48:12;5.1;;;1.4;;
41229;SDS011;26964;50.428;19.218;2023-10-08T03:49:12;4.8;;;1.5;;
41229;SDS011;26964;50.428;19.218;2023-10-08T03:50:13;4.3;;;1.1;;
41229;SDS011;26964;50.428;19.218;2023-10-08T03:51:12;5.2;;;1.3;;
41229;SDS011;26964;50.428;19.218;2023-10-08T03:52:12;4.9;;;1.5;;
41229;SDS011;26964;50.428;19.218;2023-10-08T03:53:12;4.2;;;1.3;;
41229;SDS011;26964;50.428;19.218;2023-10-08T03:54:12;3.3;;;1.4;;
41229;SDS011;26964;50.428;19.218;2023-10-08T03:55:12;4.6;;;1.3;;
41229;SDS011;26964;50.428;19.218;2023-10-08T03:56:12;3.6;;;1.2;;
41229;SDS011;26964;50.428;19.218;2023-10-08T03:57:12;3.0;;;0.9;;
41229;SDS011;26964;50.428;19.218;2023-10-08T03:58:12;3.4;;;1.3;;
41229;SDS011;26964;50.428;19.218;2023-10-08T03:59:12;3.4;;;1.3;;
41229;SDS011;26964;50.428;19.218;2023-10-08T04:00:12;3.4;;;0.9;;
41229;SDS011;26964;50.428;19.218;2023-10-08T04:01:12;2.7;;;0.9;;
41229;SDS011;26964;50.428;19.218;2023-10-08T04:02:12;3.2;;;1.1;;
41229;SDS011;26964;50.428;19.218;2023-10-08T04:03:12;3.2;;;0.9;;
41229;SDS011;26964;50.428;19.218;2023-10-08T04:04:12;5.1;;;1.3;;
41229;SDS011;26964;50.428;19.218;2023-10-08T04:05:12;4.7;;;1.2;;
41229;SDS011;26964;50.428;19.218;2023-10-08T04:06:12;3.0;;;1.2;;
41229;SDS011;26964;50.428;19.218;2023-10-08T04:07:12;3.9;;;1.2;;
41229;SDS011;26964;50.428;19.218;2023-10-08T04:08:12;4.6;;;1.2;;
41229;SDS011;26964;50.428;19.218;2023-10-08T04:09:12;3.7;;;1.3;;
41229;SDS011;26964;50.428;19.218;2023-10-08T04:10:12;3.6;;;1.0;;
41229;SDS011;26964;50.428;19.218;2023-10-08T04:11:12;2.8;;;1.1;;
41229;SDS011;26964;50.428;19.218;2023-10-08T04:12:12;2.6;;;0.9;;
41229;SDS011;26964;50.428;19.218;2023-10-08T04:13:12;3.8;;;1.1;;
41229;SDS011;26964;50.428;19.218;2023-10-08T04:14:12;3.1;;;1.0;;
41229;SDS011;26964;50.428;19.218;2023-10-08T04:15:12;3.7;;;1.3;;
41229;SDS011;26964;50.428;19.218;2023-10-08T04:16:12;4.1;;;1.3;;
41229;SDS011;26964;50.428;19.218;2023-10-08T04:17:12;5.4;;;1.3;;
41229;SDS011;26964;50.428;19.218;2023-10-08T04:18:12;4.0;;;1.3;;
41229;SDS011;26964;50.428;19.218;2023-10-08T04:19:12;2.4;;;1.2;;
41229;SDS011;26964;50.428;19.218;2023-10-08T04:20:13;2.2;;;1.2;;
41229;SDS011;26964;50.428;19.218;2023-10-08T04:21:12;3.9;;;1.4;;
41229;SDS011;26964;50.428;19.218;2023-10-08T04:22:12;3.5;;;1.3;;
41229;SDS011;26964;50.428;19.218;2023-10-08T04:23:12;3.4;;;1.2;;
41229;SDS011;26964;50.428;19.218;2023-10-08T04:24:13;6.0;;;1.0;;
41229;SDS011;26964;50.428;19.218;2023-10-08T04:25:12;4.2;;;1.4;;
41229;SDS011;26964;50.428;19.218;2023-10-08T04:26:12;4.1;;;1.0;;
41229;SDS011;26964;50.428;19.218;2023-10-08T04:27:12;3.7;;;1.1;;
41229;SDS011;26964;50.428;19.218;2023-10-08T04:28:12;6.8;;;1.9;;
41229;SDS011;26964;50.428;19.218;2023-10-08T04:29:12;6.0;;;1.0;;
41229;SDS011;26964;50.428;19.218;2023-10-08T04:30:12;3.5;;;1.2;;
41229;SDS011;26964;50.428;19.218;2023-10-08T04:31:12;3.7;;;1.1;;
41229;SDS011;26964;50.428;19.218;2023-10-08T04:32:12;5.0;;;1.5;;
41229;SDS011;26964;50.428;19.218;2023-10-08T04:33:12;4.7;;;1.6;;
41229;SDS011;26964;50.428;19.218;2023-10-08T04:34:12;5.1;;;1.4;;
41229;SDS011;26964;50.428;19.218;2023-10-08T04:35:12;4.8;;;1.4;;
41229;SDS011;26964;50.428;19.218;2023-10-08T04:36:12;4.1;;;1.3;;
41229;SDS011;26964;50.428;19.218;2023-10-08T04:37:12;6.6;;;2.1;;
41229;SDS011;26964;50.428;19.218;2023-10-08T04:38:12;5.7;;;1.4;;
41229;SDS011;26964;50.428;19.218;2023-10-08T04:39:14;6.0;;;1.4;;
41229;SDS011;26964;50.428;19.218;2023-10-08T04:40:12;5.4;;;1.7;;
41229;SDS011;26964;50.428;19.218;2023-10-08T04:41:12;3.6;;;1.5;;
41229;SDS011;26964;50.428;19.218;2023-10-08T04:42:12;4.2;;;1.2;;
41229;SDS011;26964;50.428;19.218;2023-10-08T04:43:12;6.9;;;1.5;;
41229;SDS011;26964;50.428;19.218;2023-10-08T04:44:12;4.9;;;1.9;;
41229;SDS011;26964;50.428;19.218;2023-10-08T04:45:12;4.2;;;1.4;;
41229;SDS011;26964;50.428;19.218;2023-10-08T04:46:12;4.6;;;1.5;;
41229;SDS011;26964;50.428;19.218;2023-10-08T04:47:12;5.0;;;1.3;;
41229;SDS011;26964;50.428;19.218;2023-10-08T04:48:12;4.0;;;1.6;;
41229;SDS011;26964;50.428;19.218;2023-10-08T04:49:12;4.1;;;1.2;;
41229;SDS011;26964;50.428;19.218;2023-10-08T04:50:12;3.7;;;1.1;;
41229;SDS011;26964;50.428;19.218;2023-10-08T04:51:12;3.8;;;1.5;;
41229;SDS011;26964;50.428;19.218;2023-10-08T04:52:12;3.7;;;1.2;;
41229;SDS011;26964;50.428;19.218;2023-10-08T04:53:12;3.8;;;1.6;;
41229;SDS011;26964;50.428;19.218;2023-10-08T04:54:12;5.0;;;1.7;;
41229;SDS011;26964;50.428;19.218;2023-10-08T04:55:12;5.9;;;1.8;;
41229;SDS011;26964;50.428;19.218;2023-10-08T04:56:12;3.7;;;1.5;;
41229;SDS011;26964;50.428;19.218;2023-10-08T04:57:12;5.5;;;1.9;;
41229;SDS011;26964;50.428;19.218;2023-10-08T04:58:12;6.1;;;2.2;;
41229;SDS011;26964;50.428;19.218;2023-10-08T04:59:12;4.6;;;1.9;;
41229;SDS011;26964;50.428;19.218;2023-10-08T05:00:12;7.1;;;1.9;;
41229;SDS011;26964;50.428;19.218;2023-10-08T05:01:13;4.4;;;1.7;;
41229;SDS011;26964;50.428;19.218;2023-10-08T05:02:12;3.4;;;1.4;;
41229;SDS011;26964;50.428;19.218;2023-10-08T05:03:12;4.6;;;1.5;;
41229;SDS011;26964;50.428;19.218;2023-10-08T05:04:12;6.6;;;1.6;;
41229;SDS011;26964;50.428;19.218;2023-10-08T05:05:12;3.9;;;1.7;;
41229;SDS011;26964;50.428;19.218;2023-10-08T05:06:12;3.4;;;1.4;;
41229;SDS011;26964;50.428;19.218;2023-10-08T05:07:12;5.2;;;1.4;;
41229;SDS011;26964;50.428;19.218;2023-10-08T05:08:12;2.6;;;1.1;;
41229;SDS011;26964;50.428;19.218;2023-10-08T05:09:13;4.4;;;1.2;;
41229;SDS011;26964;50.428;19.218;2023-10-08T05:10:12;3.2;;;1.2;;
41229;SDS011;26964;50.428;19.218;2023-10-08T05:11:13;5.8;;;1.8;;
41229;SDS011;26964;50.428;19.218;2023-10-08T05:12:12;3.0;;;1.1;;
41229;SDS011;26964;50.428;19.218;2023-10-08T05:13:12;5.4;;;1.6;;
41229;SDS011;26964;50.428;19.218;2023-10-08T05:14:13;4.3;;;1.0;;
41229;SDS011;26964;50.428;19.218;2023-10-08T05:15:12;2.1;;;1.3;;
41229;SDS011;26964;50.428;19.218;2023-10-08T05:16:12;5.6;;;1.8;;
41229;SDS011;26964;50.428;19.218;2023-10-08T05:17:12;1.8;;;0.8;;
41229;SDS011;26964;50.428;19.218;2023-10-08T05:18:12;3.6;;;1.3;;
41229;SDS011;26964;50.428;19.218;2023-10-08T05:19:12;3.9;;;1.4;;
41229;SDS011;26964;50.428;19.218;2023-10-08T05:20:12;3.7;;;1.2;;
41229;SDS011;26964;50.428;19.218;2023-10-08T05:21:12;3.4;;;1.2;;
41229;SDS011;26964;50.428;19.218;2023-10-08T05:22:12;3.4;;;1.0;;
41229;SDS011;26964;50.428;19.218;2023-10-08T05:23:12;4.1;;;1.3;;
41229;SDS011;26964;50.428;19.218;2023-10-08T05:24:12;3.2;;;0.9;;
41229;SDS011;26964;50.428;19.218;2023-10-08T05:25:12;4.9;;;1.7;;
41229;SDS011;26964;50.428;19.218;2023-10-08T05:26:12;3.6;;;1.2;;
41229;SDS011;26964;50.428;19.218;2023-10-08T05:27:12;3.4;;;1.2;;
41229;SDS011;26964;50.428;19.218;2023-10-08T05:28:12;3.0;;;1.2;;
41229;SDS011;26964;50.428;19.218;2023-10-08T05:29:12;3.9;;;1.5;;
41229;SDS011;26964;50.428;19.218;2023-10-08T05:30:13;2.7;;;1.2;;
41229;SDS011;26964;50.428;19.218;2023-10-08T05:31:13;3.8;;;1.1;;
41229;SDS011;26964;50.428;19.218;2023-10-08T05:32:12;2.5;;;1.1;;
41229;SDS011;26964;50.428;19.218;2023-10-08T05:33:12;5.0;;;1.3;;
41229;SDS011;26964;50.428;19.218;2023-10-08T05:34:12;5.8;;;1.4;;
41229;SDS011;26964;50.428;19.218;2023-10-08T05:35:12;4.1;;;1.1;;
41229;SDS011;26964;50.428;19.218;2023-10-08T05:36:12;3.7;;;1.2;;
41229;SDS011;26964;50.428;19.218;2023-10-08T05:37:12;2.6;;;1.2;;
41229;SDS011;26964;50.428;19.218;2023-10-08T05:38:13;4.1;;;1.3;;
41229;SDS011;26964;50.428;19.218;2023-10-08T05:39:12;3.8;;;1.3;;
41229;SDS011;26964;50.428;19.218;2023-10-08T05:40:12;4.9;;;1.4;;
41229;SDS011;26964;50.428;19.218;2023-10-08T05:41:12;7.3;;;1.6;;
41229;SDS011;26964;50.428;19.218;2023-10-08T05:42:12;5.0;;;1.4;;
41229;SDS011;26964;50.428;19.218;2023-10-08T05:43:12;4.4;;;1.3;;
41229;SDS011;26964;50.428;19.218;2023-10-08T05:44:12;3.0;;;1.0;;
41229;SDS011;26964;50.428;19.218;2023-10-08T05:45:13;4.4;;;1.2;;
41229;SDS011;26964;50.428;19.218;2023-10-08T05:46:13;3.1;;;1.1;;
41229;SDS011;26964;50.428;19.218;2023-10-08T05:47:13;4.1;;;1.3;;
41229;SDS011;26964;50.428;19.218;2023-10-08T05:48:12;4.6;;;1.3;;
41229;SDS011;26964;50.428;19.218;2023-10-08T05:49:12;4.8;;;1.4;;
41229;SDS011;26964;50.428;19.218;2023-10-08T05:50:12;2.9;;;1.0;;
41229;SDS011;26964;50.428;19.218;2023-10-08T05:51:12;5.2;;;1.7;;
41229;SDS011;26964;50.428;19.218;2023-10-08T05:52:12;5.6;;;1.4;;
41229;SDS011;26964;50.428;19.218;2023-10-08T05:53:12;5.8;;;1.5;;
41229;SDS011;26964;50.428;19.218;2023-10-08T05:54:12;4.3;;;1.4;;
41229;SDS011;26964;50.428;19.218;2023-10-08T05:55:12;5.3;;;1.3;;
41229;SDS011;26964;50.428;19.218;2023-10-08T05:56:12;5.2;;;1.8;;
41229;SDS011;26964;50.428;19.218;2023-10-08T05:57:12;7.1;;;2.0;;
41229;SDS011;26964;50.428;19.218;2023-10-08T05:58:12;4.2;;;1.5;;
41229;SDS011;26964;50.428;19.218;2023-10-08T05:59:12;7.8;;;1.5;;
41229;SDS011;26964;50.428;19.218;2023-10-08T06:00:13;5.8;;;1.5;;
41229;SDS011;26964;50.428;19.218;2023-10-08T06:01:12;3.0;;;1.3;;
41229;SDS011;26964;50.428;19.218;2023-10-08T06:02:12;3.5;;;1.5;;
41229;SDS011;26964;50.428;19.218;2023-10-08T06:03:13;3.5;;;1.6;;
41229;SDS011;26964;50.428;19.218;2023-10-08T06:04:12;4.6;;;1.6;;
41229;SDS011;26964;50.428;19.218;2023-10-08T06:05:12;3.7;;;1.1;;
41229;SDS011;26964;50.428;19.218;2023-10-08T06:06:12;5.7;;;1.4;;
41229;SDS011;26964;50.428;19.218;2023-10-08T06:07:12;7.0;;;2.7;;
41229;SDS011;26964;50.428;19.218;2023-10-08T06:08:12;6.1;;;3.0;;
41229;SDS011;26964;50.428;19.218;2023-10-08T06:09:12;5.7;;;2.9;;
41229;SDS011;26964;50.428;19.218;2023-10-08T06:10:12;7.6;;;4.1;;
41229;SDS011;26964;50.428;19.218;2023-10-08T06:11:12;4.7;;;2.5;;
41229;SDS011;26964;50.428;19.218;2023-10-08T06:12:12;5.8;;;2.4;;